sensor_id;sensor_type;location;lat;lon;timestamp;temperature;humidity
7496;DHT22;3789;47.064;15.482;2022-11-15T00:01:20;6.90;99.90
7496;DHT22;3789;47.064;15.482;2022-11-15T00:04:00;7.00;99.90
7496;DHT22;3789;47.064;15.482;2022-11-15T00:06:27;7.10;99.90
7496;DHT22;3789;47.064;15.482;2022-11-15T00:08:58;7.20;99.90
7496;DHT22;3789;47.064;15.482;2022-11-15T00:11:28;7.30;99.90
7496;DHT22;3789;47.064;15.482;2022-11-15T00:13:57;7.40;99.90
7496;DHT22;3789;47.064;15.482;2022-11-15T00:16:31;7.40;99.90
7496;DHT22;3789;47.064;15.482;2022-11-15T00:18:59;7.50;99.90
7496;DHT22;3789;47.064;15.482;2022-11-15T00:21:28;7.50;99.90
7496;DHT22;3789;47.064;15.482;2022-11-15T00:24:04;7.60;99.90
7496;DHT22;3789;47.064;15.482;2022-11-15T00:26:32;7.70;99.90
7496;DHT22;3789;47.064;15.482;2022-11-15T00:29:02;7.70;99.90
7496;DHT22;3789;47.064;15.482;2022-11-15T00:31:32;7.70;99.90
7496;DHT22;3789;47.064;15.482;2022-11-15T00:34:02;7.70;99.90
7496;DHT22;3789;47.064;15.482;2022-11-15T00:36:33;7.70;99.90
7496;DHT22;3789;47.064;15.482;2022-11-15T00:39:05;7.70;99.90
7496;DHT22;3789;47.064;15.482;2022-11-15T00:41:34;7.80;99.90
7496;DHT22;3789;47.064;15.482;2022-11-15T00:44:05;7.80;99.90
7496;DHT22;3789;47.064;15.482;2022-11-15T00:46:34;7.80;99.90
7496;DHT22;3789;47.064;15.482;2022-11-15T00:49:04;7.80;99.90
7496;DHT22;3789;47.064;15.482;2022-11-15T00:51:31;7.80;99.90
7496;DHT22;3789;47.064;15.482;2022-11-15T00:54:01;7.80;99.90
7496;DHT22;3789;47.064;15.482;2022-11-15T00:56:36;7.80;99.90
7496;DHT22;3789;47.064;15.482;2022-11-15T00:59:12;7.70;99.90
7496;DHT22;3789;47.064;15.482;2022-11-15T01:01:42;7.70;99.90
7496;DHT22;3789;47.064;15.482;2022-11-15T01:04:09;7.60;99.90
7496;DHT22;3789;47.064;15.482;2022-11-15T01:06:48;7.60;99.90
7496;DHT22;3789;47.064;15.482;2022-11-15T01:09:15;7.60;99.90
7496;DHT22;3789;47.064;15.482;2022-11-15T01:11:44;7.60;99.90
7496;DHT22;3789;47.064;15.482;2022-11-15T01:14:15;7.50;99.90
7496;DHT22;3789;47.064;15.482;2022-11-15T01:16:52;7.50;99.90
7496;DHT22;3789;47.064;15.482;2022-11-15T01:19:23;7.50;99.90
7496;DHT22;3789;47.064;15.482;2022-11-15T01:21:55;7.40;99.90
7496;DHT22;3789;47.064;15.482;2022-11-15T01:24:27;7.40;99.90
7496;DHT22;3789;47.064;15.482;2022-11-15T01:26:55;7.50;99.90
7496;DHT22;3789;47.064;15.482;2022-11-15T01:29:26;7.50;99.90
7496;DHT22;3789;47.064;15.482;2022-11-15T01:31:57;7.50;99.90
7496;DHT22;3789;47.064;15.482;2022-11-15T01:34:35;7.60;99.90
7496;DHT22;3789;47.064;15.482;2022-11-15T01:37:13;7.70;99.90
7496;DHT22;3789;47.064;15.482;2022-11-15T01:39:45;7.70;99.90
7496;DHT22;3789;47.064;15.482;2022-11-15T01:42:23;7.70;99.90
7496;DHT22;3789;47.064;15.482;2022-11-15T01:44:59;7.70;99.90
7496;DHT22;3789;47.064;15.482;2022-11-15T01:47:38;7.70;99.90
7496;DHT22;3789;47.064;15.482;2022-11-15T01:50:14;7.80;99.90
7496;DHT22;3789;47.064;15.482;2022-11-15T01:52:44;7.80;99.90
7496;DHT22;3789;47.064;15.482;2022-11-15T01:55:26;7.80;99.90
7496;DHT22;3789;47.064;15.482;2022-11-15T01:58:02;7.90;99.90
7496;DHT22;3789;47.064;15.482;2022-11-15T02:00:32;7.90;99.90
7496;DHT22;3789;47.064;15.482;2022-11-15T02:03:03;7.90;99.90
7496;DHT22;3789;47.064;15.482;2022-11-15T02:05:35;8.00;99.90
7496;DHT22;3789;47.064;15.482;2022-11-15T02:08:21;7.90;99.90
7496;DHT22;3789;47.064;15.482;2022-11-15T02:10:49;7.90;99.90
7496;DHT22;3789;47.064;15.482;2022-11-15T02:13:20;7.80;99.90
7496;DHT22;3789;47.064;15.482;2022-11-15T02:16:08;7.80;99.90
7496;DHT22;3789;47.064;15.482;2022-11-15T02:18:55;7.80;99.90
7496;DHT22;3789;47.064;15.482;2022-11-15T02:36:43;8.00;99.90
7496;DHT22;3789;47.064;15.482;2022-11-15T02:39:51;8.00;99.90
7496;DHT22;3789;47.064;15.482;2022-11-15T02:42:52;8.10;99.90
7496;DHT22;3789;47.064;15.482;2022-11-15T02:46:22;8.10;99.90
7496;DHT22;3789;47.064;15.482;2022-11-15T02:49:26;8.00;99.90
7496;DHT22;3789;47.064;15.482;2022-11-15T02:52:30;8.00;99.90
7496;DHT22;3789;47.064;15.482;2022-11-15T02:55:41;8.10;99.90
7496;DHT22;3789;47.064;15.482;2022-11-15T03:04:50;7.90;99.90
7496;DHT22;3789;47.064;15.482;2022-11-15T03:08:05;7.90;99.90
7496;DHT22;3789;47.064;15.482;2022-11-15T03:11:11;7.90;99.90
7496;DHT22;3789;47.064;15.482;2022-11-15T03:14:25;6.30;99.90
7496;DHT22;3789;47.064;15.482;2022-11-15T03:17:39;4.00;99.90
7496;DHT22;3789;47.064;15.482;2022-11-15T03:20:09;2.30;99.90
7496;DHT22;3789;47.064;15.482;2022-11-15T03:22:43;1.40;99.90
7496;DHT22;3789;47.064;15.482;2022-11-15T03:25:49;0.90;99.90
7496;DHT22;3789;47.064;15.482;2022-11-15T03:28:40;0.60;99.90
7496;DHT22;3789;47.064;15.482;2022-11-15T03:31:33;0.40;99.90
7496;DHT22;3789;47.064;15.482;2022-11-15T03:34:27;0.20;99.90
7496;DHT22;3789;47.064;15.482;2022-11-15T03:37:02;0.10;99.90
7496;DHT22;3789;47.064;15.482;2022-11-15T03:39:49;-0.10;99.90
7496;DHT22;3789;47.064;15.482;2022-11-15T03:46:27;-0.40;99.90
7496;DHT22;3789;47.064;15.482;2022-11-15T03:49:25;-0.50;99.90
7496;DHT22;3789;47.064;15.482;2022-11-15T03:52:13;-0.10;99.90
7496;DHT22;3789;47.064;15.482;2022-11-15T03:55:03;0.90;99.90
7496;DHT22;3789;47.064;15.482;2022-11-15T03:57:31;1.80;99.90
7496;DHT22;3789;47.064;15.482;2022-11-15T04:00:01;2.50;99.90
7496;DHT22;3789;47.064;15.482;2022-11-15T04:02:30;3.10;99.90
7496;DHT22;3789;47.064;15.482;2022-11-15T04:04:58;3.60;99.90
7496;DHT22;3789;47.064;15.482;2022-11-15T04:07:25;4.10;99.90
7496;DHT22;3789;47.064;15.482;2022-11-15T04:09:55;4.50;99.90
7496;DHT22;3789;47.064;15.482;2022-11-15T04:12:36;4.80;99.90
7496;DHT22;3789;47.064;15.482;2022-11-15T04:15:20;5.20;99.90
7496;DHT22;3789;47.064;15.482;2022-11-15T04:17:53;5.50;99.90
7496;DHT22;3789;47.064;15.482;2022-11-15T04:20:32;5.70;99.90
7496;DHT22;3789;47.064;15.482;2022-11-15T04:23:21;5.90;99.90
7496;DHT22;3789;47.064;15.482;2022-11-15T04:26:12;6.10;99.90
7496;DHT22;3789;47.064;15.482;2022-11-15T04:28:45;6.20;99.90
7496;DHT22;3789;47.064;15.482;2022-11-15T04:31:31;6.30;99.90
7496;DHT22;3789;47.064;15.482;2022-11-15T04:34:00;6.50;99.90
7496;DHT22;3789;47.064;15.482;2022-11-15T04:36:27;6.50;99.90
7496;DHT22;3789;47.064;15.482;2022-11-15T04:39:12;6.60;99.90
7496;DHT22;3789;47.064;15.482;2022-11-15T04:41:42;6.70;99.90
7496;DHT22;3789;47.064;15.482;2022-11-15T04:44:09;6.80;99.90
7496;DHT22;3789;47.064;15.482;2022-11-15T04:46:42;6.80;99.90
7496;DHT22;3789;47.064;15.482;2022-11-15T04:49:09;6.90;99.90
7496;DHT22;3789;47.064;15.482;2022-11-15T04:51:37;6.90;99.90
7496;DHT22;3789;47.064;15.482;2022-11-15T04:54:19;6.90;99.90
7496;DHT22;3789;47.064;15.482;2022-11-15T04:56:46;7.00;99.90
7496;DHT22;3789;47.064;15.482;2022-11-15T04:59:13;7.00;99.90
7496;DHT22;3789;47.064;15.482;2022-11-15T05:01:40;7.00;99.90
7496;DHT22;3789;47.064;15.482;2022-11-15T05:04:12;7.00;99.90
7496;DHT22;3789;47.064;15.482;2022-11-15T05:06:49;7.00;99.90
7496;DHT22;3789;47.064;15.482;2022-11-15T05:09:19;7.10;99.90
7496;DHT22;3789;47.064;15.482;2022-11-15T05:11:47;7.10;99.90
7496;DHT22;3789;47.064;15.482;2022-11-15T05:14:15;7.10;99.90
7496;DHT22;3789;47.064;15.482;2022-11-15T05:16:48;7.20;99.90
7496;DHT22;3789;47.064;15.482;2022-11-15T05:19:38;7.20;99.90
7496;DHT22;3789;47.064;15.482;2022-11-15T05:22:05;7.30;99.90
7496;DHT22;3789;47.064;15.482;2022-11-15T05:24:35;7.30;99.90
7496;DHT22;3789;47.064;15.482;2022-11-15T05:27:02;7.30;99.90
7496;DHT22;3789;47.064;15.482;2022-11-15T05:29:30;7.40;99.90
7496;DHT22;3789;47.064;15.482;2022-11-15T05:31:57;7.40;99.90
7496;DHT22;3789;47.064;15.482;2022-11-15T05:34:24;7.40;99.90
7496;DHT22;3789;47.064;15.482;2022-11-15T05:36:53;7.40;99.90
7496;DHT22;3789;47.064;15.482;2022-11-15T05:39:20;7.40;99.90
7496;DHT22;3789;47.064;15.482;2022-11-15T05:42:01;7.40;99.90
7496;DHT22;3789;47.064;15.482;2022-11-15T05:44:31;7.50;99.90
7496;DHT22;3789;47.064;15.482;2022-11-15T05:47:17;7.50;99.90
7496;DHT22;3789;47.064;15.482;2022-11-15T05:49:47;7.50;99.90
7496;DHT22;3789;47.064;15.482;2022-11-15T05:52:17;7.50;99.90
7496;DHT22;3789;47.064;15.482;2022-11-15T05:54:50;7.50;99.90
7496;DHT22;3789;47.064;15.482;2022-11-15T05:57:20;7.50;99.90
7496;DHT22;3789;47.064;15.482;2022-11-15T05:59:48;7.50;99.90
7496;DHT22;3789;47.064;15.482;2022-11-15T06:02:15;7.60;99.90
7496;DHT22;3789;47.064;15.482;2022-11-15T06:04:45;7.60;99.90
7496;DHT22;3789;47.064;15.482;2022-11-15T06:07:17;7.60;99.90
7496;DHT22;3789;47.064;15.482;2022-11-15T06:09:44;7.50;99.90
7496;DHT22;3789;47.064;15.482;2022-11-15T06:12:12;7.50;99.90
7496;DHT22;3789;47.064;15.482;2022-11-15T06:14:44;7.50;99.90
7496;DHT22;3789;47.064;15.482;2022-11-15T06:17:12;7.60;99.90
7496;DHT22;3789;47.064;15.482;2022-11-15T06:19:41;7.50;99.90
7496;DHT22;3789;47.064;15.482;2022-11-15T06:22:10;7.60;99.90
7496;DHT22;3789;47.064;15.482;2022-11-15T06:24:38;7.60;99.90
7496;DHT22;3789;47.064;15.482;2022-11-15T06:27:11;7.60;99.90
7496;DHT22;3789;47.064;15.482;2022-11-15T06:29:40;7.70;99.90
7496;DHT22;3789;47.064;15.482;2022-11-15T06:32:09;7.70;99.90
7496;DHT22;3789;47.064;15.482;2022-11-15T06:34:38;7.70;99.90
7496;DHT22;3789;47.064;15.482;2022-11-15T06:37:06;7.60;99.90
7496;DHT22;3789;47.064;15.482;2022-11-15T06:39:36;7.60;99.90
7496;DHT22;3789;47.064;15.482;2022-11-15T06:42:08;7.70;99.90
7496;DHT22;3789;47.064;15.482;2022-11-15T06:44:38;7.70;99.90
7496;DHT22;3789;47.064;15.482;2022-11-15T06:47:06;7.70;99.90
7496;DHT22;3789;47.064;15.482;2022-11-15T06:49:33;7.80;99.90
7496;DHT22;3789;47.064;15.482;2022-11-15T06:52:02;7.80;99.90
7496;DHT22;3789;47.064;15.482;2022-11-15T06:54:29;7.80;99.90
7496;DHT22;3789;47.064;15.482;2022-11-15T06:56:57;7.80;99.90
7496;DHT22;3789;47.064;15.482;2022-11-15T06:59:24;7.90;99.90
7496;DHT22;3789;47.064;15.482;2022-11-15T07:01:53;7.90;99.90
7496;DHT22;3789;47.064;15.482;2022-11-15T07:04:20;7.80;99.90
7496;DHT22;3789;47.064;15.482;2022-11-15T07:06:48;7.70;99.90
7496;DHT22;3789;47.064;15.482;2022-11-15T07:09:16;7.50;99.90
7496;DHT22;3789;47.064;15.482;2022-11-15T07:11:47;7.50;99.90
7496;DHT22;3789;47.064;15.482;2022-11-15T07:14:14;7.60;99.90
7496;DHT22;3789;47.064;15.482;2022-11-15T07:16:41;7.60;99.90
7496;DHT22;3789;47.064;15.482;2022-11-15T07:19:12;7.50;99.90
7496;DHT22;3789;47.064;15.482;2022-11-15T07:21:40;7.40;99.90
7496;DHT22;3789;47.064;15.482;2022-11-15T07:24:08;7.40;99.90
7496;DHT22;3789;47.064;15.482;2022-11-15T07:26:35;7.40;99.90
7496;DHT22;3789;47.064;15.482;2022-11-15T07:29:04;7.40;99.90
7496;DHT22;3789;47.064;15.482;2022-11-15T07:31:32;7.50;99.90
7496;DHT22;3789;47.064;15.482;2022-11-15T07:34:00;7.50;99.90
7496;DHT22;3789;47.064;15.482;2022-11-15T07:36:27;7.60;99.90
7496;DHT22;3789;47.064;15.482;2022-11-15T07:38:54;7.50;99.90
7496;DHT22;3789;47.064;15.482;2022-11-15T07:41:23;7.50;99.90
7496;DHT22;3789;47.064;15.482;2022-11-15T07:43:51;7.60;99.90
7496;DHT22;3789;47.064;15.482;2022-11-15T07:46:20;7.60;99.90
7496;DHT22;3789;47.064;15.482;2022-11-15T07:48:52;7.70;99.90
7496;DHT22;3789;47.064;15.482;2022-11-15T07:51:20;7.70;99.90
7496;DHT22;3789;47.064;15.482;2022-11-15T07:53:47;7.80;99.90
7496;DHT22;3789;47.064;15.482;2022-11-15T07:56:15;7.70;99.90
7496;DHT22;3789;47.064;15.482;2022-11-15T07:58:46;7.60;99.90
7496;DHT22;3789;47.064;15.482;2022-11-15T08:01:15;7.70;99.90
7496;DHT22;3789;47.064;15.482;2022-11-15T08:03:43;7.70;99.90
7496;DHT22;3789;47.064;15.482;2022-11-15T08:06:12;7.60;99.90
7496;DHT22;3789;47.064;15.482;2022-11-15T08:08:41;7.50;99.90
7496;DHT22;3789;47.064;15.482;2022-11-15T08:11:10;7.60;99.90
7496;DHT22;3789;47.064;15.482;2022-11-15T08:13:39;7.70;99.90
7496;DHT22;3789;47.064;15.482;2022-11-15T08:16:23;7.90;99.90
7496;DHT22;3789;47.064;15.482;2022-11-15T08:18:50;8.00;99.90
7496;DHT22;3789;47.064;15.482;2022-11-15T08:21:23;8.00;99.90
7496;DHT22;3789;47.064;15.482;2022-11-15T08:24:03;8.10;99.90
7496;DHT22;3789;47.064;15.482;2022-11-15T08:26:38;8.10;99.90
7496;DHT22;3789;47.064;15.482;2022-11-15T08:29:09;8.20;99.90
7496;DHT22;3789;47.064;15.482;2022-11-15T08:31:40;8.20;99.90
7496;DHT22;3789;47.064;15.482;2022-11-15T08:34:10;8.30;99.90
7496;DHT22;3789;47.064;15.482;2022-11-15T08:36:37;8.30;99.90
7496;DHT22;3789;47.064;15.482;2022-11-15T08:39:14;8.40;99.90
7496;DHT22;3789;47.064;15.482;2022-11-15T08:41:42;8.40;99.90
7496;DHT22;3789;47.064;15.482;2022-11-15T08:44:12;8.40;99.90
7496;DHT22;3789;47.064;15.482;2022-11-15T08:46:41;8.50;99.90
7496;DHT22;3789;47.064;15.482;2022-11-15T08:49:09;8.50;99.90
7496;DHT22;3789;47.064;15.482;2022-11-15T08:51:39;8.50;99.90
7496;DHT22;3789;47.064;15.482;2022-11-15T08:54:17;8.50;99.90
7496;DHT22;3789;47.064;15.482;2022-11-15T08:56:45;8.60;99.90
7496;DHT22;3789;47.064;15.482;2022-11-15T08:59:14;8.60;99.90
7496;DHT22;3789;47.064;15.482;2022-11-15T09:01:43;8.60;99.90
7496;DHT22;3789;47.064;15.482;2022-11-15T09:04:13;8.70;99.90
7496;DHT22;3789;47.064;15.482;2022-11-15T09:06:42;8.70;99.90
7496;DHT22;3789;47.064;15.482;2022-11-15T09:09:13;8.80;99.90
7496;DHT22;3789;47.064;15.482;2022-11-15T09:11:43;8.80;99.90
7496;DHT22;3789;47.064;15.482;2022-11-15T09:14:16;8.80;99.90
7496;DHT22;3789;47.064;15.482;2022-11-15T09:16:43;8.80;99.90
7496;DHT22;3789;47.064;15.482;2022-11-15T09:19:16;8.70;99.90
7496;DHT22;3789;47.064;15.482;2022-11-15T09:21:47;8.70;99.90
7496;DHT22;3789;47.064;15.482;2022-11-15T09:24:19;8.70;99.90
7496;DHT22;3789;47.064;15.482;2022-11-15T09:26:51;8.70;99.90
7496;DHT22;3789;47.064;15.482;2022-11-15T09:29:18;8.70;99.90
7496;DHT22;3789;47.064;15.482;2022-11-15T09:31:48;8.80;99.90
7496;DHT22;3789;47.064;15.482;2022-11-15T09:34:16;8.80;99.90
7496;DHT22;3789;47.064;15.482;2022-11-15T09:36:52;8.90;99.90
7496;DHT22;3789;47.064;15.482;2022-11-15T09:39:31;8.90;99.90
7496;DHT22;3789;47.064;15.482;2022-11-15T09:48:58;9.00;99.90
7496;DHT22;3789;47.064;15.482;2022-11-15T09:51:38;9.00;99.90
7496;DHT22;3789;47.064;15.482;2022-11-15T09:54:37;9.00;99.90
7496;DHT22;3789;47.064;15.482;2022-11-15T09:57:38;9.00;99.90
7496;DHT22;3789;47.064;15.482;2022-11-15T10:00:35;9.10;99.90
7496;DHT22;3789;47.064;15.482;2022-11-15T10:03:36;9.10;99.90
7496;DHT22;3789;47.064;15.482;2022-11-15T10:06:24;9.10;99.90
7496;DHT22;3789;47.064;15.482;2022-11-15T10:09:15;9.10;99.90
7496;DHT22;3789;47.064;15.482;2022-11-15T10:11:50;9.10;99.90
7496;DHT22;3789;47.064;15.482;2022-11-15T10:14:29;9.20;99.90
7496;DHT22;3789;47.064;15.482;2022-11-15T10:20:27;9.20;99.90
7496;DHT22;3789;47.064;15.482;2022-11-15T10:23:04;9.30;99.90
7496;DHT22;3789;47.064;15.482;2022-11-15T10:25:36;9.40;99.90
7496;DHT22;3789;47.064;15.482;2022-11-15T10:28:31;9.50;99.90
7496;DHT22;3789;47.064;15.482;2022-11-15T10:31:25;9.60;99.90
7496;DHT22;3789;47.064;15.482;2022-11-15T10:34:34;9.60;99.90
7496;DHT22;3789;47.064;15.482;2022-11-15T10:37:03;9.60;99.90
7496;DHT22;3789;47.064;15.482;2022-11-15T10:39:41;9.60;99.90
7496;DHT22;3789;47.064;15.482;2022-11-15T10:42:36;9.60;99.90
7496;DHT22;3789;47.064;15.482;2022-11-15T10:45:29;9.70;99.90
7496;DHT22;3789;47.064;15.482;2022-11-15T10:50:48;9.70;99.90
7496;DHT22;3789;47.064;15.482;2022-11-15T10:53:23;9.70;99.90
7496;DHT22;3789;47.064;15.482;2022-11-15T10:56:00;9.70;99.90
7496;DHT22;3789;47.064;15.482;2022-11-15T10:58:40;9.80;99.90
7496;DHT22;3789;47.064;15.482;2022-11-15T11:01:18;9.80;99.90
7496;DHT22;3789;47.064;15.482;2022-11-15T11:04:08;9.80;99.90
7496;DHT22;3789;47.064;15.482;2022-11-15T11:06:59;9.70;99.90
7496;DHT22;3789;47.064;15.482;2022-11-15T11:09:39;9.70;99.90
7496;DHT22;3789;47.064;15.482;2022-11-15T11:12:11;9.70;99.90
7496;DHT22;3789;47.064;15.482;2022-11-15T11:14:40;9.70;99.90
7496;DHT22;3789;47.064;15.482;2022-11-15T11:32:34;10.00;99.90
7496;DHT22;3789;47.064;15.482;2022-11-15T11:38:32;10.10;99.90
7496;DHT22;3789;47.064;15.482;2022-11-15T11:50:25;10.20;99.90
7496;DHT22;3789;47.064;15.482;2022-11-15T11:53:14;10.30;99.90
7496;DHT22;3789;47.064;15.482;2022-11-15T11:55:53;10.30;99.90
7496;DHT22;3789;47.064;15.482;2022-11-15T11:58:50;10.20;99.90
7496;DHT22;3789;47.064;15.482;2022-11-15T12:01:37;10.30;99.90
7496;DHT22;3789;47.064;15.482;2022-11-15T12:07:15;10.40;99.90
7496;DHT22;3789;47.064;15.482;2022-11-15T12:10:25;10.40;99.90
7496;DHT22;3789;47.064;15.482;2022-11-15T12:13:13;10.30;99.90
7496;DHT22;3789;47.064;15.482;2022-11-15T12:18:50;10.10;99.90
7496;DHT22;3789;47.064;15.482;2022-11-15T12:27:50;10.00;99.90
7496;DHT22;3789;47.064;15.482;2022-11-15T12:30:18;10.10;99.90
7496;DHT22;3789;47.064;15.482;2022-11-15T12:32:56;10.10;99.90
7496;DHT22;3789;47.064;15.482;2022-11-15T12:35:41;10.00;99.90
7496;DHT22;3789;47.064;15.482;2022-11-15T12:38:12;10.00;99.90
7496;DHT22;3789;47.064;15.482;2022-11-15T12:41:16;9.90;99.90
7496;DHT22;3789;47.064;15.482;2022-11-15T12:43:49;9.90;99.90
7496;DHT22;3789;47.064;15.482;2022-11-15T12:52:06;9.80;99.90
7496;DHT22;3789;47.064;15.482;2022-11-15T12:57:32;9.80;99.90
7496;DHT22;3789;47.064;15.482;2022-11-15T13:03:18;9.70;99.90
7496;DHT22;3789;47.064;15.482;2022-11-15T13:05:56;9.70;99.90
7496;DHT22;3789;47.064;15.482;2022-11-15T13:08:43;9.60;99.90
7496;DHT22;3789;47.064;15.482;2022-11-15T13:11:47;9.60;99.90
7496;DHT22;3789;47.064;15.482;2022-11-15T13:14:56;9.60;99.90
7496;DHT22;3789;47.064;15.482;2022-11-15T13:26:06;9.50;99.90
7496;DHT22;3789;47.064;15.482;2022-11-15T13:28:49;9.50;99.90
7496;DHT22;3789;47.064;15.482;2022-11-15T13:31:36;9.40;99.90
7496;DHT22;3789;47.064;15.482;2022-11-15T13:34:30;9.40;99.90
7496;DHT22;3789;47.064;15.482;2022-11-15T13:37:27;9.40;99.90
7496;DHT22;3789;47.064;15.482;2022-11-15T13:40:29;9.40;99.90
7496;DHT22;3789;47.064;15.482;2022-11-15T13:43:58;9.30;99.90
7496;DHT22;3789;47.064;15.482;2022-11-15T13:49:02;9.30;99.90
7496;DHT22;3789;47.064;15.482;2022-11-15T13:51:53;9.30;99.90
7496;DHT22;3789;47.064;15.482;2022-11-15T13:57:24;9.30;99.90
7496;DHT22;3789;47.064;15.482;2022-11-15T14:00:23;9.30;99.90
7496;DHT22;3789;47.064;15.482;2022-11-15T14:02:55;9.30;99.90
7496;DHT22;3789;47.064;15.482;2022-11-15T14:05:32;9.20;99.90
7496;DHT22;3789;47.064;15.482;2022-11-15T14:10:45;9.10;99.90
7496;DHT22;3789;47.064;15.482;2022-11-15T14:13:33;9.10;99.90
7496;DHT22;3789;47.064;15.482;2022-11-15T14:16:38;9.10;99.90
7496;DHT22;3789;47.064;15.482;2022-11-15T14:19:12;9.10;99.90
7496;DHT22;3789;47.064;15.482;2022-11-15T14:22:12;9.00;99.90
7496;DHT22;3789;47.064;15.482;2022-11-15T14:25:22;9.00;99.90
7496;DHT22;3789;47.064;15.482;2022-11-15T14:30:41;9.00;99.90
7496;DHT22;3789;47.064;15.482;2022-11-15T14:33:36;8.90;99.90
7496;DHT22;3789;47.064;15.482;2022-11-15T14:36:16;8.90;99.90
7496;DHT22;3789;47.064;15.482;2022-11-15T14:38:44;8.90;99.90
7496;DHT22;3789;47.064;15.482;2022-11-15T14:41:20;8.80;99.90
7496;DHT22;3789;47.064;15.482;2022-11-15T14:59:02;8.40;99.90
7496;DHT22;3789;47.064;15.482;2022-11-15T15:01:35;7.00;99.90
7496;DHT22;3789;47.064;15.482;2022-11-15T15:04:05;5.50;99.90
7496;DHT22;3789;47.064;15.482;2022-11-15T15:06:32;4.50;99.90
7496;DHT22;3789;47.064;15.482;2022-11-15T15:09:02;3.80;99.90
7496;DHT22;3789;47.064;15.482;2022-11-15T15:11:32;3.40;99.90
7496;DHT22;3789;47.064;15.482;2022-11-15T15:14:02;3.40;99.90
7496;DHT22;3789;47.064;15.482;2022-11-15T15:16:32;3.40;99.90
7496;DHT22;3789;47.064;15.482;2022-11-15T15:19:02;3.30;99.90
7496;DHT22;3789;47.064;15.482;2022-11-15T15:21:34;4.00;99.90
7496;DHT22;3789;47.064;15.482;2022-11-15T15:24:17;4.70;99.90
7496;DHT22;3789;47.064;15.482;2022-11-15T15:26:46;5.40;99.90
7496;DHT22;3789;47.064;15.482;2022-11-15T15:29:15;5.80;99.90
7496;DHT22;3789;47.064;15.482;2022-11-15T15:31:43;6.10;99.90
7496;DHT22;3789;47.064;15.482;2022-11-15T15:34:13;6.40;99.90
7496;DHT22;3789;47.064;15.482;2022-11-15T15:36:44;6.60;99.90
7496;DHT22;3789;47.064;15.482;2022-11-15T15:39:15;6.90;99.90
7496;DHT22;3789;47.064;15.482;2022-11-15T15:41:43;7.00;99.90
7496;DHT22;3789;47.064;15.482;2022-11-15T15:44:13;7.20;99.90
7496;DHT22;3789;47.064;15.482;2022-11-15T15:46:41;7.30;99.90
7496;DHT22;3789;47.064;15.482;2022-11-15T15:49:19;7.30;99.90
7496;DHT22;3789;47.064;15.482;2022-11-15T15:51:49;7.40;99.90
7496;DHT22;3789;47.064;15.482;2022-11-15T15:54:19;7.60;99.90
7496;DHT22;3789;47.064;15.482;2022-11-15T15:56:50;7.60;99.90
7496;DHT22;3789;47.064;15.482;2022-11-15T15:59:24;7.60;99.90
7496;DHT22;3789;47.064;15.482;2022-11-15T16:01:52;7.70;99.90
7496;DHT22;3789;47.064;15.482;2022-11-15T16:04:22;7.70;99.90
7496;DHT22;3789;47.064;15.482;2022-11-15T16:06:52;7.80;99.90
7496;DHT22;3789;47.064;15.482;2022-11-15T16:09:22;7.70;99.90
7496;DHT22;3789;47.064;15.482;2022-11-15T16:12:10;7.70;99.90
7496;DHT22;3789;47.064;15.482;2022-11-15T16:14:40;7.70;99.90
7496;DHT22;3789;47.064;15.482;2022-11-15T16:17:20;7.60;99.90
7496;DHT22;3789;47.064;15.482;2022-11-15T16:19:50;7.70;99.90
7496;DHT22;3789;47.064;15.482;2022-11-15T16:22:18;7.80;99.90
7496;DHT22;3789;47.064;15.482;2022-11-15T16:24:56;7.80;99.90
7496;DHT22;3789;47.064;15.482;2022-11-15T16:27:31;7.80;99.90
7496;DHT22;3789;47.064;15.482;2022-11-15T16:30:00;7.90;99.90
7496;DHT22;3789;47.064;15.482;2022-11-15T16:32:31;7.90;99.90
7496;DHT22;3789;47.064;15.482;2022-11-15T16:35:15;8.00;99.90
7496;DHT22;3789;47.064;15.482;2022-11-15T16:37:45;8.00;99.90
7496;DHT22;3789;47.064;15.482;2022-11-15T16:40:31;7.90;99.90
7496;DHT22;3789;47.064;15.482;2022-11-15T16:42:59;8.00;99.90
7496;DHT22;3789;47.064;15.482;2022-11-15T16:45:33;8.00;99.90
7496;DHT22;3789;47.064;15.482;2022-11-15T16:48:06;7.90;99.90
7496;DHT22;3789;47.064;15.482;2022-11-15T16:50:48;7.90;99.90
7496;DHT22;3789;47.064;15.482;2022-11-15T16:53:17;7.90;99.90
7496;DHT22;3789;47.064;15.482;2022-11-15T16:55:45;7.90;99.90
7496;DHT22;3789;47.064;15.482;2022-11-15T16:58:13;7.90;99.90
7496;DHT22;3789;47.064;15.482;2022-11-15T17:00:40;7.90;99.90
7496;DHT22;3789;47.064;15.482;2022-11-15T17:03:12;8.00;99.90
7496;DHT22;3789;47.064;15.482;2022-11-15T17:05:43;8.00;99.90
7496;DHT22;3789;47.064;15.482;2022-11-15T17:08:11;7.90;99.90
7496;DHT22;3789;47.064;15.482;2022-11-15T17:10:42;7.80;99.90
7496;DHT22;3789;47.064;15.482;2022-11-15T17:13:15;7.70;99.90
7496;DHT22;3789;47.064;15.482;2022-11-15T17:16:03;7.70;99.90
7496;DHT22;3789;47.064;15.482;2022-11-15T17:18:33;7.70;99.90
7496;DHT22;3789;47.064;15.482;2022-11-15T17:21:25;7.70;99.90
7496;DHT22;3789;47.064;15.482;2022-11-15T17:24:01;7.80;99.90
7496;DHT22;3789;47.064;15.482;2022-11-15T17:26:31;7.70;99.90
7496;DHT22;3789;47.064;15.482;2022-11-15T17:29:08;7.80;99.90
7496;DHT22;3789;47.064;15.482;2022-11-15T17:31:37;7.80;99.90
7496;DHT22;3789;47.064;15.482;2022-11-15T17:34:07;7.80;99.90
7496;DHT22;3789;47.064;15.482;2022-11-15T17:36:45;7.80;99.90
7496;DHT22;3789;47.064;15.482;2022-11-15T17:39:14;7.90;99.90
7496;DHT22;3789;47.064;15.482;2022-11-15T17:41:43;7.90;99.90
7496;DHT22;3789;47.064;15.482;2022-11-15T17:44:11;7.90;99.90
7496;DHT22;3789;47.064;15.482;2022-11-15T17:46:42;7.90;99.90
7496;DHT22;3789;47.064;15.482;2022-11-15T17:49:17;7.90;99.90
7496;DHT22;3789;47.064;15.482;2022-11-15T17:51:45;7.90;99.90
7496;DHT22;3789;47.064;15.482;2022-11-15T17:54:17;8.00;99.90
7496;DHT22;3789;47.064;15.482;2022-11-15T17:56:45;8.00;99.90
7496;DHT22;3789;47.064;15.482;2022-11-15T17:59:14;8.00;99.90
7496;DHT22;3789;47.064;15.482;2022-11-15T18:01:49;8.00;99.90
7496;DHT22;3789;47.064;15.482;2022-11-15T18:04:21;7.90;99.90
7496;DHT22;3789;47.064;15.482;2022-11-15T18:06:57;7.90;99.90
7496;DHT22;3789;47.064;15.482;2022-11-15T18:09:27;7.90;99.90
7496;DHT22;3789;47.064;15.482;2022-11-15T18:11:55;7.90;99.90
7496;DHT22;3789;47.064;15.482;2022-11-15T18:14:35;7.90;99.90
7496;DHT22;3789;47.064;15.482;2022-11-15T18:17:05;7.90;99.90
7496;DHT22;3789;47.064;15.482;2022-11-15T18:19:40;7.90;99.90
7496;DHT22;3789;47.064;15.482;2022-11-15T18:22:10;7.80;99.90
7496;DHT22;3789;47.064;15.482;2022-11-15T18:24:38;7.80;99.90
7496;DHT22;3789;47.064;15.482;2022-11-15T18:27:08;7.90;99.90
7496;DHT22;3789;47.064;15.482;2022-11-15T18:29:36;7.90;99.90
7496;DHT22;3789;47.064;15.482;2022-11-15T18:32:12;7.90;99.90
7496;DHT22;3789;47.064;15.482;2022-11-15T18:34:43;7.90;99.90
7496;DHT22;3789;47.064;15.482;2022-11-15T18:37:13;8.00;99.90
7496;DHT22;3789;47.064;15.482;2022-11-15T18:39:47;8.00;99.90
7496;DHT22;3789;47.064;15.482;2022-11-15T18:42:37;8.00;99.90
7496;DHT22;3789;47.064;15.482;2022-11-15T18:45:06;8.00;99.90
7496;DHT22;3789;47.064;15.482;2022-11-15T18:47:39;8.00;99.90
7496;DHT22;3789;47.064;15.482;2022-11-15T18:50:08;8.00;99.90
7496;DHT22;3789;47.064;15.482;2022-11-15T18:52:38;8.00;99.90
7496;DHT22;3789;47.064;15.482;2022-11-15T18:55:08;8.00;99.90
7496;DHT22;3789;47.064;15.482;2022-11-15T18:57:42;8.10;99.90
7496;DHT22;3789;47.064;15.482;2022-11-15T19:00:13;8.10;99.90